createdAt,value
2023-01-22T00:00:50.961Z,1010.07
2023-01-22T00:01:50.952Z,1010.06
2023-01-22T00:02:51.013Z,1010.06
2023-01-22T00:03:50.983Z,1010.08
2023-01-22T00:04:50.910Z,1010.01
2023-01-22T00:05:50.902Z,1010.05
2023-01-22T00:06:50.879Z,1010.00
2023-01-22T00:07:50.897Z,1010.05
2023-01-22T00:08:50.860Z,1010.09
2023-01-22T00:09:50.838Z,1010.13
2023-01-22T00:10:50.846Z,1010.11
2023-01-22T00:11:50.818Z,1010.15
2023-01-22T00:12:50.818Z,1010.09
2023-01-22T00:13:50.799Z,1010.07
2023-01-22T00:14:50.787Z,1010.12
2023-01-22T00:15:50.816Z,1010.13
2023-01-22T00:16:50.764Z,1010.14
2023-01-22T00:17:50.754Z,1010.13
2023-01-22T00:18:50.750Z,1010.13
2023-01-22T00:19:50.720Z,1010.13
2023-01-22T00:20:50.703Z,1010.11
2023-01-22T00:21:50.686Z,1010.14
2023-01-22T00:22:50.696Z,1010.15
2023-01-22T00:23:50.672Z,1010.13
2023-01-22T00:24:50.661Z,1010.16
2023-01-22T00:25:50.635Z,1010.16
2023-01-22T00:26:50.628Z,1010.14
2023-01-22T00:27:50.625Z,1010.15
2023-01-22T00:28:50.597Z,1010.13
2023-01-22T00:29:50.584Z,1010.14
2023-01-22T00:30:50.615Z,1010.18
2023-01-22T00:31:50.711Z,1010.21
2023-01-22T00:32:50.565Z,1010.17
2023-01-22T00:33:50.533Z,1010.20
2023-01-22T00:34:50.524Z,1010.22
2023-01-22T00:35:50.507Z,1010.22
2023-01-22T00:36:50.489Z,1010.18
2023-01-22T00:37:50.504Z,1010.19
2023-01-22T00:38:50.477Z,1010.17
2023-01-22T00:39:50.459Z,1010.22
2023-01-22T00:40:50.447Z,1010.26
2023-01-22T00:41:50.430Z,1010.21
2023-01-22T00:42:50.430Z,1010.21
2023-01-22T00:43:52.802Z,1010.22
2023-01-22T00:44:50.401Z,1010.26
2023-01-22T00:45:50.380Z,1010.25
2023-01-22T00:46:50.390Z,1010.28
2023-01-22T00:47:50.360Z,1010.19
2023-01-22T00:48:50.368Z,1010.22
2023-01-22T00:49:50.343Z,1010.25
2023-01-22T00:50:50.359Z,1010.24
2023-01-22T00:51:50.300Z,1010.27
2023-01-22T00:52:50.304Z,1010.27
2023-01-22T00:53:50.274Z,1010.28
2023-01-22T00:54:50.275Z,1010.29
2023-01-22T00:55:50.258Z,1010.27
2023-01-22T00:56:50.243Z,1010.24
2023-01-22T00:57:50.228Z,1010.32
2023-01-22T00:58:50.207Z,1010.29
2023-01-22T00:59:50.194Z,1010.31
2023-01-22T01:00:50.213Z,1010.34
2023-01-22T01:01:50.239Z,1010.33
2023-01-22T01:02:50.170Z,1010.26
2023-01-22T01:03:50.148Z,1010.31
2023-01-22T01:04:50.147Z,1010.28
2023-01-22T01:05:50.113Z,1010.30
2023-01-22T01:06:50.104Z,1010.30
2023-01-22T01:07:50.107Z,1010.34
2023-01-22T01:08:50.162Z,1010.29
2023-01-22T01:09:50.065Z,1010.22
2023-01-22T01:10:50.054Z,1010.27
2023-01-22T01:11:50.035Z,1010.29
2023-01-22T01:12:50.065Z,1010.26
2023-01-22T01:13:50.024Z,1010.29
2023-01-22T01:14:50.004Z,1010.30
2023-01-22T01:15:50.009Z,1010.33
2023-01-22T01:16:49.991Z,1010.23
2023-01-22T01:17:49.981Z,1010.26
2023-01-22T01:18:49.953Z,1010.32
2023-01-22T01:19:49.933Z,1010.31
2023-01-22T01:20:49.921Z,1010.31
2023-01-22T01:21:49.913Z,1010.31
2023-01-22T01:22:49.909Z,1010.29
2023-01-22T01:23:49.895Z,1010.32
2023-01-22T01:24:49.870Z,1010.30
2023-01-22T01:25:49.864Z,1010.28
2023-01-22T01:26:49.850Z,1010.33
2023-01-22T01:27:49.856Z,1010.25
2023-01-22T01:28:49.823Z,1010.31
2023-01-22T01:29:49.800Z,1010.25
2023-01-22T01:30:49.832Z,1010.31
2023-01-22T01:31:49.837Z,1010.32
2023-01-22T01:32:49.779Z,1010.32
2023-01-22T01:33:49.761Z,1010.28
2023-01-22T01:34:49.748Z,1010.29
2023-01-22T01:35:49.733Z,1010.30
2023-01-22T01:36:49.994Z,1010.33
2023-01-22T01:37:49.709Z,1010.29
2023-01-22T01:38:49.694Z,1010.40
2023-01-22T01:39:49.675Z,1010.41
2023-01-22T01:40:49.677Z,1010.41
2023-01-22T01:41:49.649Z,1010.40
2023-01-22T01:42:49.649Z,1010.38
2023-01-22T01:43:49.630Z,1010.43
2023-01-22T01:44:49.616Z,1010.40
2023-01-22T01:45:49.599Z,1010.38
2023-01-22T01:46:49.636Z,1010.38
2023-01-22T01:47:49.590Z,1010.35
2023-01-22T01:48:49.569Z,1010.37
2023-01-22T01:49:49.544Z,1010.40
2023-01-22T01:50:49.591Z,1010.38
2023-01-22T01:51:49.528Z,1010.38
2023-01-22T01:52:49.528Z,1010.42
2023-01-22T01:53:49.484Z,1010.39
2023-01-22T01:54:49.484Z,1010.38
2023-01-22T01:55:49.464Z,1010.38
2023-01-22T01:56:49.455Z,1010.40
2023-01-22T01:57:49.463Z,1010.40
2023-01-22T01:58:49.434Z,1010.43
2023-01-22T01:59:49.413Z,1010.45
2023-01-22T02:00:49.428Z,1010.46
2023-01-22T02:01:49.414Z,1010.46
2023-01-22T02:02:49.411Z,1010.52
2023-01-22T02:03:49.363Z,1010.53
2023-01-22T02:04:49.357Z,1010.49
2023-01-22T02:05:49.343Z,1010.52
2023-01-22T02:06:49.342Z,1010.51
2023-01-22T02:07:49.329Z,1010.52
2023-01-22T02:08:49.300Z,1010.52
2023-01-22T02:09:49.293Z,1010.56
2023-01-22T02:10:49.272Z,1010.58
2023-01-22T02:11:49.261Z,1010.60
2023-01-22T02:12:49.264Z,1010.57
2023-01-22T02:13:51.400Z,1010.61
2023-01-22T02:14:49.228Z,1010.60
2023-01-22T02:15:49.209Z,1010.64
2023-01-22T02:16:49.203Z,1010.62
2023-01-22T02:17:49.194Z,1010.63
2023-01-22T02:18:49.205Z,1010.60
2023-01-22T02:19:49.158Z,1010.60
2023-01-22T02:20:49.138Z,1010.62
2023-01-22T02:21:49.128Z,1010.62
2023-01-22T02:22:49.130Z,1010.64
2023-01-22T02:23:49.113Z,1010.64
2023-01-22T02:24:49.132Z,1010.61
2023-01-22T02:25:49.076Z,1010.63
2023-01-22T02:26:49.074Z,1010.62
2023-01-22T02:27:49.064Z,1010.59
2023-01-22T02:28:49.036Z,1010.61
2023-01-22T02:29:49.026Z,1010.61
2023-01-22T02:30:49.043Z,1010.65
2023-01-22T02:31:49.034Z,1010.64
2023-01-22T02:32:48.995Z,1010.63
2023-01-22T02:33:48.977Z,1010.59
2023-01-22T02:34:48.983Z,1010.63
2023-01-22T02:35:48.955Z,1010.63
2023-01-22T02:36:48.936Z,1010.65
2023-01-22T02:37:48.926Z,1010.61
2023-01-22T02:38:48.909Z,1010.56
2023-01-22T02:39:48.897Z,1010.52
2023-01-22T02:40:48.944Z,1010.52
2023-01-22T02:41:48.873Z,1010.47
2023-01-22T02:42:48.871Z,1010.48
2023-01-22T02:43:48.844Z,1010.55
2023-01-22T02:44:48.840Z,1010.52
2023-01-22T02:45:48.836Z,1010.51
2023-01-22T02:46:48.820Z,1010.54
2023-01-22T02:47:48.803Z,1010.50
2023-01-22T02:48:48.780Z,1010.51
2023-01-22T02:49:48.779Z,1010.56
2023-01-22T02:50:48.813Z,1010.49
2023-01-22T02:51:48.741Z,1010.43
2023-01-22T02:52:48.745Z,1010.46
2023-01-22T02:53:48.727Z,1010.52
2023-01-22T02:54:48.701Z,1010.56
2023-01-22T02:55:48.681Z,1010.54
2023-01-22T02:56:48.680Z,1010.56
2023-01-22T02:57:48.671Z,1010.55
2023-01-22T02:58:48.650Z,1010.54
2023-01-22T02:59:48.628Z,1010.52
2023-01-22T03:00:48.629Z,1010.54
2023-01-22T03:01:48.655Z,1010.52
2023-01-22T03:02:48.611Z,1010.56
2023-01-22T03:03:48.579Z,1010.54
2023-01-22T03:04:48.578Z,1010.55
2023-01-22T03:05:48.548Z,1010.52
2023-01-22T03:06:48.545Z,1010.55
2023-01-22T03:07:48.542Z,1010.53
2023-01-22T03:08:48.516Z,1010.57
2023-01-22T03:09:48.499Z,1010.56
2023-01-22T03:10:48.495Z,1010.55
2023-01-22T03:11:48.487Z,1010.62
2023-01-22T03:12:48.477Z,1010.58
2023-01-22T03:13:48.444Z,1010.58
2023-01-22T03:14:48.437Z,1010.57
2023-01-22T03:15:48.424Z,1010.54
2023-01-22T03:16:48.445Z,1010.57
2023-01-22T03:17:48.407Z,1010.61
2023-01-22T03:18:48.394Z,1010.55
2023-01-22T03:19:48.375Z,1010.59
2023-01-22T03:20:48.366Z,1010.53
2023-01-22T03:21:48.355Z,1010.58
2023-01-22T03:22:48.361Z,1010.60
2023-01-22T03:23:48.313Z,1010.58
2023-01-22T03:24:48.311Z,1010.55
2023-01-22T03:25:48.293Z,1010.55
2023-01-22T03:26:48.285Z,1010.56
2023-01-22T03:27:48.282Z,1010.56
2023-01-22T03:28:48.262Z,1010.48
2023-01-22T03:29:48.243Z,1010.56
2023-01-22T03:30:48.234Z,1010.55
2023-01-22T03:31:48.410Z,1010.58
2023-01-22T03:32:48.210Z,1010.58
2023-01-22T03:33:48.191Z,1010.59
2023-01-22T03:34:48.178Z,1010.60
2023-01-22T03:35:48.180Z,1010.62
2023-01-22T03:36:48.162Z,1010.61
2023-01-22T03:37:48.150Z,1010.64
2023-01-22T03:38:48.152Z,1010.67
2023-01-22T03:39:48.145Z,1010.64
2023-01-22T03:40:48.099Z,1010.66
2023-01-22T03:41:48.104Z,1010.68
2023-01-22T03:42:48.091Z,1010.69
2023-01-22T03:43:48.069Z,1010.67
2023-01-22T03:44:48.093Z,1010.57
2023-01-22T03:45:48.068Z,1010.62
2023-01-22T03:46:48.032Z,1010.57
2023-01-22T03:47:48.038Z,1010.64
2023-01-22T03:48:47.998Z,1010.65
2023-01-22T03:49:47.993Z,1010.64
2023-01-22T03:50:47.994Z,1010.64
2023-01-22T03:51:47.969Z,1010.67
2023-01-22T03:52:47.958Z,1010.70
2023-01-22T03:53:47.936Z,1010.70
2023-01-22T03:54:47.926Z,1010.63
2023-01-22T03:55:47.907Z,1010.64
2023-01-22T03:56:47.903Z,1010.63
2023-01-22T03:57:47.936Z,1010.71
2023-01-22T03:58:47.870Z,1010.68
2023-01-22T03:59:47.871Z,1010.67
2023-01-22T04:00:47.843Z,1010.71
2023-01-22T04:01:47.835Z,1010.72
2023-01-22T04:02:47.822Z,1010.73
2023-01-22T04:03:47.804Z,1010.73
2023-01-22T04:04:47.870Z,1010.79
2023-01-22T04:05:47.774Z,1010.75
2023-01-22T04:06:47.765Z,1010.75
2023-01-22T04:07:47.779Z,1010.75
2023-01-22T04:08:47.742Z,1010.76
2023-01-22T04:09:47.745Z,1010.79
2023-01-22T04:10:47.711Z,1010.81
2023-01-22T04:11:47.701Z,1010.85
2023-01-22T04:12:47.702Z,1010.86
2023-01-22T04:13:47.682Z,1010.86
2023-01-22T04:14:47.664Z,1010.88
2023-01-22T04:15:47.650Z,1010.87
2023-01-22T04:16:47.662Z,1010.86
2023-01-22T04:17:47.648Z,1010.87
2023-01-22T04:18:47.633Z,1010.90
2023-01-22T04:19:47.599Z,1010.90
2023-01-22T04:20:47.595Z,1010.89
2023-01-22T04:21:47.574Z,1010.92
2023-01-22T04:22:47.589Z,1010.99
2023-01-22T04:23:47.549Z,1010.93
2023-01-22T04:24:47.533Z,1010.97
2023-01-22T04:25:47.531Z,1010.96
2023-01-22T04:26:47.509Z,1010.96
2023-01-22T04:27:47.507Z,1011.00
2023-01-22T04:28:47.490Z,1011.01
2023-01-22T04:29:47.468Z,1011.04
2023-01-22T04:30:47.576Z,1011.03
2023-01-22T04:31:47.548Z,1011.03
2023-01-22T04:32:47.458Z,1011.06
2023-01-22T04:33:47.421Z,1011.04
2023-01-22T04:34:47.404Z,1011.10
2023-01-22T04:35:47.395Z,1011.10
2023-01-22T04:36:47.376Z,1011.08
2023-01-22T04:37:47.382Z,1011.04
2023-01-22T04:38:47.359Z,1011.07
2023-01-22T04:39:47.371Z,1011.09
2023-01-22T04:40:47.328Z,1011.09
2023-01-22T04:41:47.316Z,1011.07
2023-01-22T04:42:47.308Z,1011.10
2023-01-22T04:43:47.294Z,1011.07
2023-01-22T04:44:47.273Z,1011.12
2023-01-22T04:45:47.311Z,1011.12
2023-01-22T04:46:47.248Z,1011.13
2023-01-22T04:47:47.243Z,1011.11
2023-01-22T04:48:47.229Z,1011.08
2023-01-22T04:49:47.217Z,1011.05
2023-01-22T04:50:47.254Z,1011.12
2023-01-22T04:51:47.193Z,1011.14
2023-01-22T04:52:47.183Z,1011.12
2023-01-22T04:53:47.168Z,1011.09
2023-01-22T04:54:47.143Z,1011.08
2023-01-22T04:55:47.132Z,1011.09
2023-01-22T04:56:47.120Z,1011.07
2023-01-22T04:57:47.117Z,1011.14
2023-01-22T04:58:47.083Z,1011.07
2023-01-22T04:59:47.081Z,1011.12
2023-01-22T05:00:47.062Z,1011.10
2023-01-22T05:01:47.060Z,1011.12
2023-01-22T05:02:47.132Z,1011.16
2023-01-22T05:03:47.029Z,1011.10
2023-01-22T05:04:47.013Z,1011.12
2023-01-22T05:05:47.023Z,1011.11
2023-01-22T05:06:46.996Z,1011.11
2023-01-22T05:07:46.999Z,1011.17
2023-01-22T05:08:46.962Z,1011.16
2023-01-22T05:09:46.961Z,1011.11
2023-01-22T05:10:46.940Z,1011.16
2023-01-22T05:11:46.933Z,1011.17
2023-01-22T05:12:46.930Z,1011.16
2023-01-22T05:13:46.899Z,1011.17
2023-01-22T05:14:46.888Z,1011.16
2023-01-22T05:15:46.908Z,1011.16
2023-01-22T05:16:46.866Z,1011.25
2023-01-22T05:17:46.857Z,1011.27
2023-01-22T05:18:46.837Z,1011.25
2023-01-22T05:19:46.823Z,1011.28
2023-01-22T05:20:46.797Z,1011.32
2023-01-22T05:21:46.800Z,1011.28
2023-01-22T05:22:46.798Z,1011.31
2023-01-22T05:23:46.778Z,1011.28
2023-01-22T05:24:46.757Z,1011.31
2023-01-22T05:25:46.734Z,1011.34
2023-01-22T05:26:46.731Z,1011.35
2023-01-22T05:27:46.741Z,1011.38
2023-01-22T05:28:46.694Z,1011.28
2023-01-22T05:29:46.698Z,1011.32
2023-01-22T05:30:46.755Z,1011.38
2023-01-22T05:31:46.706Z,1011.45
2023-01-22T05:32:46.665Z,1011.45
2023-01-22T05:33:46.643Z,1011.44
2023-01-22T05:34:46.635Z,1011.52
2023-01-22T05:35:46.612Z,1011.49
2023-01-22T05:36:46.591Z,1011.55
2023-01-22T05:37:46.603Z,1011.46
2023-01-22T05:38:46.576Z,1011.48
2023-01-22T05:39:46.571Z,1011.52
2023-01-22T05:40:46.548Z,1011.49
2023-01-22T05:41:46.543Z,1011.53
2023-01-22T05:42:46.529Z,1011.51
2023-01-22T05:43:46.512Z,1011.55
2023-01-22T05:44:46.495Z,1011.52
2023-01-22T05:45:46.484Z,1011.51
2023-01-22T05:46:46.471Z,1011.50
2023-01-22T05:47:46.469Z,1011.54
2023-01-22T05:48:46.454Z,1011.52
2023-01-22T05:49:46.439Z,1011.57
2023-01-22T05:50:46.458Z,1011.53
2023-01-22T05:51:46.442Z,1011.51
2023-01-22T05:52:46.391Z,1011.50
2023-01-22T05:53:46.377Z,1011.51
2023-01-22T05:54:46.358Z,1011.49
2023-01-22T05:55:46.359Z,1011.50
2023-01-22T05:56:46.342Z,1011.55
2023-01-22T05:57:46.339Z,1011.52
2023-01-22T05:58:46.318Z,1011.53
2023-01-22T05:59:46.310Z,1011.55
2023-01-22T06:00:46.289Z,1011.56
2023-01-22T06:01:46.282Z,1011.57
2023-01-22T06:02:46.331Z,1011.55
2023-01-22T06:03:46.332Z,1011.53
2023-01-22T06:04:46.226Z,1011.54
2023-01-22T06:05:46.231Z,1011.56
2023-01-22T06:06:46.210Z,1011.58
2023-01-22T06:07:46.218Z,1011.55
2023-01-22T06:08:46.188Z,1011.56
2023-01-22T06:09:46.178Z,1011.56
2023-01-22T06:10:46.154Z,1011.58
2023-01-22T06:11:46.148Z,1011.60
2023-01-22T06:12:46.134Z,1011.63
2023-01-22T06:13:46.120Z,1011.54
2023-01-22T06:14:46.106Z,1011.54
2023-01-22T06:15:46.130Z,1011.59
2023-01-22T06:16:46.079Z,1011.59
2023-01-22T06:17:46.082Z,1011.62
2023-01-22T06:18:46.053Z,1011.59
2023-01-22T06:19:46.035Z,1011.60
2023-01-22T06:20:46.028Z,1011.56
2023-01-22T06:21:46.038Z,1011.53
2023-01-22T06:22:46.015Z,1011.56
2023-01-22T06:23:45.993Z,1011.58
2023-01-22T06:24:45.985Z,1011.59
2023-01-22T06:25:45.970Z,1011.65
2023-01-22T06:26:45.942Z,1011.64
2023-01-22T06:27:45.961Z,1011.62
2023-01-22T06:28:45.930Z,1011.62
2023-01-22T06:29:45.909Z,1011.64
2023-01-22T06:30:45.922Z,1011.61
2023-01-22T06:31:45.938Z,1011.62
2023-01-22T06:32:45.880Z,1011.65
2023-01-22T06:33:45.861Z,1011.70
2023-01-22T06:34:45.844Z,1011.69
2023-01-22T06:35:45.832Z,1011.70
2023-01-22T06:36:45.809Z,1011.66
2023-01-22T06:37:45.819Z,1011.75
2023-01-22T06:38:45.794Z,1011.76
2023-01-22T06:39:45.783Z,1011.77
2023-01-22T06:40:45.769Z,1011.78
2023-01-22T06:41:45.757Z,1011.84
2023-01-22T06:42:45.756Z,1011.81
2023-01-22T06:43:45.735Z,1011.81
2023-01-22T06:44:45.717Z,1011.87
2023-01-22T06:45:45.698Z,1011.84
2023-01-22T06:46:45.733Z,1011.89
2023-01-22T06:47:45.686Z,1011.89
2023-01-22T06:48:45.656Z,1011.89
2023-01-22T06:49:45.665Z,1011.91
2023-01-22T06:50:45.625Z,1011.89
2023-01-22T06:51:45.637Z,1011.94
2023-01-22T06:52:45.638Z,1011.96
2023-01-22T06:53:45.595Z,1011.97
2023-01-22T06:54:45.576Z,1011.98
2023-01-22T06:55:45.577Z,1012.00
2023-01-22T06:56:45.563Z,1011.99
2023-01-22T06:57:45.563Z,1011.97
2023-01-22T06:58:45.541Z,1012.02
2023-01-22T06:59:45.524Z,1012.05
2023-01-22T07:00:45.493Z,1012.03
2023-01-22T07:01:45.553Z,1012.01
2023-01-22T07:02:45.482Z,1012.06
2023-01-22T07:03:45.552Z,1012.08
2023-01-22T07:04:45.464Z,1012.16
2023-01-22T07:05:45.440Z,1012.12
2023-01-22T07:06:45.422Z,1012.15
2023-01-22T07:07:45.437Z,1012.25
2023-01-22T07:08:45.394Z,1012.25
2023-01-22T07:09:45.425Z,1012.27
2023-01-22T07:10:45.382Z,1012.29
2023-01-22T07:11:45.371Z,1012.35
2023-01-22T07:12:45.380Z,1012.32
2023-01-22T07:13:45.345Z,1012.34
2023-01-22T07:14:45.328Z,1012.37
2023-01-22T07:15:45.366Z,1012.36
2023-01-22T07:16:45.304Z,1012.35
2023-01-22T07:17:45.566Z,1012.34
2023-01-22T07:18:45.273Z,1012.31
2023-01-22T07:19:45.271Z,1012.37
2023-01-22T07:20:45.243Z,1012.39
2023-01-22T07:21:45.229Z,1012.36
2023-01-22T07:22:45.373Z,1012.41
2023-01-22T07:23:45.213Z,1012.41
2023-01-22T07:24:45.198Z,1012.46
2023-01-22T07:25:45.188Z,1012.47
2023-01-22T07:26:45.188Z,1012.45
2023-01-22T07:27:45.165Z,1012.48
2023-01-22T07:28:45.148Z,1012.53
2023-01-22T07:29:45.141Z,1012.49
2023-01-22T07:30:45.147Z,1012.45
2023-01-22T07:31:45.197Z,1012.47
2023-01-22T07:32:45.104Z,1012.49
2023-01-22T07:33:45.088Z,1012.45
2023-01-22T07:34:45.055Z,1012.50
2023-01-22T07:35:45.046Z,1012.53
2023-01-22T07:36:45.042Z,1012.54
2023-01-22T07:37:45.151Z,1012.58
2023-01-22T07:38:45.008Z,1012.58
2023-01-22T07:39:45.009Z,1012.61
2023-01-22T07:40:44.987Z,1012.59
2023-01-22T07:41:44.986Z,1012.56
2023-01-22T07:42:44.963Z,1012.58
2023-01-22T07:43:44.951Z,1012.54
2023-01-22T07:44:44.934Z,1012.57
2023-01-22T07:45:44.938Z,1012.58
2023-01-22T07:46:44.950Z,1012.58
2023-01-22T07:47:44.935Z,1012.61
2023-01-22T07:48:45.855Z,1012.60
2023-01-22T07:49:44.874Z,1012.65
2023-01-22T07:50:44.852Z,1012.68
2023-01-22T07:51:44.845Z,1012.60
2023-01-22T07:52:44.864Z,1012.66
2023-01-22T07:53:44.820Z,1012.67
2023-01-22T07:54:44.804Z,1012.65
2023-01-22T07:55:44.793Z,1012.69
2023-01-22T07:56:44.784Z,1012.66
2023-01-22T07:57:44.772Z,1012.68
2023-01-22T07:58:44.755Z,1012.66
2023-01-22T07:59:44.752Z,1012.70
2023-01-22T08:00:44.762Z,1012.70
2023-01-22T08:01:44.761Z,1012.73
2023-01-22T08:02:44.727Z,1012.68
2023-01-22T08:03:44.692Z,1012.70
2023-01-22T08:04:44.676Z,1012.73
2023-01-22T08:05:44.665Z,1012.77
2023-01-22T08:06:44.663Z,1012.73
2023-01-22T08:07:44.648Z,1012.76
2023-01-22T08:08:44.634Z,1012.77
2023-01-22T08:09:44.610Z,1012.75
2023-01-22T08:10:44.598Z,1012.80
2023-01-22T08:11:44.589Z,1012.83
2023-01-22T08:12:46.424Z,1012.78
2023-01-22T08:13:44.559Z,1012.79
2023-01-22T08:14:44.563Z,1012.85
2023-01-22T08:15:44.525Z,1012.83
2023-01-22T08:16:44.576Z,1012.81
2023-01-22T08:17:44.515Z,1012.77
2023-01-22T08:18:44.494Z,1012.81
2023-01-22T08:19:44.479Z,1012.80
2023-01-22T08:20:44.477Z,1012.82
2023-01-22T08:21:44.445Z,1012.83
2023-01-22T08:22:44.458Z,1012.80
2023-01-22T08:23:48.195Z,1012.86
2023-01-22T08:24:44.423Z,1012.82
2023-01-22T08:25:44.417Z,1012.83
2023-01-22T08:26:44.396Z,1012.87
2023-01-22T08:27:44.383Z,1012.93
2023-01-22T08:28:44.378Z,1012.86
2023-01-22T08:29:44.357Z,1012.90
2023-01-22T08:30:46.823Z,1012.94
2023-01-22T08:31:44.383Z,1012.94
2023-01-22T08:32:44.323Z,1012.94
2023-01-22T08:33:44.292Z,1012.96
2023-01-22T08:34:44.281Z,1012.96
2023-01-22T08:35:44.273Z,1013.01
2023-01-22T08:36:44.260Z,1012.99
2023-01-22T08:37:44.256Z,1012.92
2023-01-22T08:38:44.241Z,1013.01
2023-01-22T08:39:44.222Z,1012.96
2023-01-22T08:40:44.209Z,1013.02
2023-01-22T08:41:44.194Z,1013.03
2023-01-22T08:42:44.193Z,1013.06
2023-01-22T08:43:44.170Z,1013.09
2023-01-22T08:44:44.170Z,1013.05
2023-01-22T08:45:44.156Z,1013.17
2023-01-22T08:46:44.132Z,1013.12
2023-01-22T08:47:44.119Z,1013.19
2023-01-22T08:48:44.197Z,1013.21
2023-01-22T08:49:44.093Z,1013.22
2023-01-22T08:50:44.082Z,1013.24
2023-01-22T08:51:44.072Z,1013.22
2023-01-22T08:52:44.072Z,1013.26
2023-01-22T08:53:44.055Z,1013.22
2023-01-22T08:54:44.028Z,1013.24
2023-01-22T08:55:44.014Z,1013.19
2023-01-22T08:56:43.998Z,1013.19
2023-01-22T08:57:43.998Z,1013.19
2023-01-22T08:58:43.984Z,1013.25
2023-01-22T08:59:52.545Z,1013.25
2023-01-22T09:00:44.987Z,1013.25
2023-01-22T09:01:43.938Z,1013.23
2023-01-22T09:02:43.948Z,1013.21
2023-01-22T09:03:43.923Z,1013.24
2023-01-22T09:04:43.884Z,1013.13
2023-01-22T09:05:43.882Z,1013.25
2023-01-22T09:06:43.879Z,1013.22
2023-01-22T09:07:43.866Z,1013.27
2023-01-22T09:08:43.858Z,1013.18
2023-01-22T09:09:43.854Z,1013.22
2023-01-22T09:10:43.814Z,1013.28
2023-01-22T09:11:43.803Z,1013.25
2023-01-22T09:12:43.802Z,1013.24
2023-01-22T09:13:43.774Z,1013.25
2023-01-22T09:14:43.767Z,1013.25
2023-01-22T09:15:43.753Z,1013.23
2023-01-22T09:16:43.791Z,1013.30
2023-01-22T09:17:43.793Z,1013.29
2023-01-22T09:18:43.710Z,1013.29
2023-01-22T09:19:43.795Z,1013.33
2023-01-22T09:20:43.686Z,1013.32
2023-01-22T09:21:43.672Z,1013.35
2023-01-22T09:22:43.684Z,1013.36
2023-01-22T09:23:43.648Z,1013.37
2023-01-22T09:24:44.280Z,1013.36
2023-01-22T09:25:43.612Z,1013.44
2023-01-22T09:26:43.616Z,1013.39
2023-01-22T09:27:43.608Z,1013.40
2023-01-22T09:28:45.227Z,1013.38
2023-01-22T09:29:44.038Z,1013.42
2023-01-22T09:30:43.589Z,1013.44
2023-01-22T09:31:43.596Z,1013.48
2023-01-22T09:32:43.556Z,1013.45
2023-01-22T09:33:43.532Z,1013.48
2023-01-22T09:34:43.508Z,1013.47
2023-01-22T09:35:43.525Z,1013.49
2023-01-22T09:36:43.491Z,1013.54
2023-01-22T09:37:43.918Z,1013.52
2023-01-22T09:38:43.447Z,1013.57
2023-01-22T09:39:43.435Z,1013.57
2023-01-22T09:40:43.444Z,1013.55
2023-01-22T09:41:43.405Z,1013.54
2023-01-22T09:42:44.186Z,1013.60
2023-01-22T09:43:43.398Z,1013.57
2023-01-22T09:44:43.451Z,1013.60
2023-01-22T09:45:43.467Z,1013.54
2023-01-22T09:46:43.397Z,1013.59
2023-01-22T09:47:43.336Z,1013.62
2023-01-22T09:48:43.330Z,1013.62
2023-01-22T09:49:43.295Z,1013.67
2023-01-22T09:50:43.307Z,1013.69
2023-01-22T09:51:43.290Z,1013.70
2023-01-22T09:52:43.306Z,1013.64
2023-01-22T09:53:43.324Z,1013.63
2023-01-22T09:54:43.247Z,1013.61
2023-01-22T09:55:43.222Z,1013.61
2023-01-22T09:56:43.227Z,1013.60
2023-01-22T09:57:43.220Z,1013.59
2023-01-22T09:58:43.199Z,1013.62
2023-01-22T09:59:43.173Z,1013.60
2023-01-22T10:00:43.166Z,1013.55
2023-01-22T10:01:43.150Z,1013.55
2023-01-22T10:02:43.192Z,1013.59
2023-01-22T10:03:43.132Z,1013.51
2023-01-22T10:04:43.109Z,1013.52
2023-01-22T10:05:43.108Z,1013.50
2023-01-22T10:06:43.079Z,1013.52
2023-01-22T10:07:43.082Z,1013.50
2023-01-22T10:08:43.055Z,1013.53
2023-01-22T10:09:43.038Z,1013.51
2023-01-22T10:10:43.048Z,1013.57
2023-01-22T10:11:43.020Z,1013.57
2023-01-22T10:12:43.013Z,1013.55
2023-01-22T10:13:43.005Z,1013.53
2023-01-22T10:14:43.078Z,1013.62
2023-01-22T10:15:42.970Z,1013.60
2023-01-22T10:16:43.066Z,1013.64
2023-01-22T10:17:42.947Z,1013.57
2023-01-22T10:18:42.941Z,1013.55
2023-01-22T10:19:42.914Z,1013.59
2023-01-22T10:20:42.901Z,1013.59
2023-01-22T10:21:42.876Z,1013.54
2023-01-22T10:22:42.895Z,1013.59
2023-01-22T10:23:42.886Z,1013.58
2023-01-22T10:24:42.849Z,1013.61
2023-01-22T10:25:42.827Z,1013.58
2023-01-22T10:26:42.830Z,1013.59
2023-01-22T10:27:42.814Z,1013.55
2023-01-22T10:28:42.794Z,1013.54
2023-01-22T10:29:42.790Z,1013.57
2023-01-22T10:30:42.836Z,1013.59
2023-01-22T10:31:42.861Z,1013.60
2023-01-22T10:32:42.778Z,1013.61
2023-01-22T10:33:42.727Z,1013.63
2023-01-22T10:34:42.721Z,1013.63
2023-01-22T10:35:42.703Z,1013.61
2023-01-22T10:36:42.696Z,1013.63
2023-01-22T10:37:42.724Z,1013.57
2023-01-22T10:38:42.681Z,1013.61
2023-01-22T10:39:42.646Z,1013.53
2023-01-22T10:40:42.641Z,1013.59
2023-01-22T10:41:42.623Z,1013.57
2023-01-22T10:42:42.624Z,1013.64
2023-01-22T10:43:42.602Z,1013.64
2023-01-22T10:44:42.586Z,1013.63
2023-01-22T10:45:42.573Z,1013.63
2023-01-22T10:46:42.560Z,1013.65
2023-01-22T10:47:42.567Z,1013.66
2023-01-22T10:48:42.542Z,1013.70
2023-01-22T10:49:43.883Z,1013.71
2023-01-22T10:50:42.938Z,1013.70
2023-01-22T10:51:42.510Z,1013.66
2023-01-22T10:52:42.496Z,1013.68
2023-01-22T10:53:42.459Z,1013.65
2023-01-22T10:54:42.460Z,1013.65
2023-01-22T10:55:42.430Z,1013.64
2023-01-22T10:56:42.428Z,1013.60
2023-01-22T10:57:42.419Z,1013.63
2023-01-22T10:58:42.397Z,1013.64
2023-01-22T10:59:42.390Z,1013.61
2023-01-22T11:00:51.876Z,1013.65
2023-01-22T11:01:43.499Z,1013.62
2023-01-22T11:02:42.421Z,1013.61
2023-01-22T11:03:42.329Z,1013.58
2023-01-22T11:04:42.325Z,1013.51
2023-01-22T11:05:42.306Z,1013.48
2023-01-22T11:06:42.302Z,1013.51
2023-01-22T11:07:42.286Z,1013.50
2023-01-22T11:08:42.264Z,1013.49
2023-01-22T11:09:42.255Z,1013.49
2023-01-22T11:10:42.247Z,1013.53
2023-01-22T11:11:42.245Z,1013.60
2023-01-22T11:12:42.225Z,1013.60
2023-01-22T11:13:42.214Z,1013.62
2023-01-22T11:14:44.874Z,1013.64
2023-01-22T11:15:42.199Z,1013.70
2023-01-22T11:16:42.165Z,1013.66
2023-01-22T11:17:42.184Z,1013.67
2023-01-22T11:18:42.144Z,1013.66
2023-01-22T11:19:43.605Z,1013.68
2023-01-22T11:20:42.111Z,1013.72
2023-01-22T11:21:42.156Z,1013.75
2023-01-22T11:22:42.113Z,1013.75
2023-01-22T11:23:42.072Z,1013.72
2023-01-22T11:24:42.069Z,1013.75
2023-01-22T11:25:42.044Z,1013.68
2023-01-22T11:26:42.031Z,1013.73
2023-01-22T11:27:42.047Z,1013.75
2023-01-22T11:28:42.006Z,1013.75
2023-01-22T11:29:41.989Z,1013.84
2023-01-22T11:30:42.303Z,1013.79
2023-01-22T11:31:42.080Z,1013.83
2023-01-22T11:32:41.974Z,1013.83
2023-01-22T11:33:41.939Z,1013.86
2023-01-22T11:34:41.928Z,1013.88
2023-01-22T11:35:41.909Z,1013.84
2023-01-22T11:36:41.909Z,1013.86
2023-01-22T11:37:41.901Z,1013.90
2023-01-22T11:38:41.869Z,1013.96
2023-01-22T11:39:41.851Z,1013.90
2023-01-22T11:40:41.892Z,1013.87
2023-01-22T11:41:41.827Z,1013.88
2023-01-22T11:42:41.836Z,1013.87
2023-01-22T11:43:41.797Z,1013.86
2023-01-22T11:44:41.818Z,1013.86
2023-01-22T11:45:41.788Z,1013.92
2023-01-22T11:46:41.783Z,1013.92
2023-01-22T11:47:41.765Z,1013.92
2023-01-22T11:48:41.744Z,1013.83
2023-01-22T11:49:41.725Z,1013.83
2023-01-22T11:50:41.722Z,1013.83
2023-01-22T11:51:41.706Z,1013.84
2023-01-22T11:52:42.154Z,1013.80
2023-01-22T11:53:41.674Z,1013.82
2023-01-22T11:54:41.664Z,1013.78
2023-01-22T11:55:41.664Z,1013.75
2023-01-22T11:56:41.634Z,1013.71
2023-01-22T11:57:41.635Z,1013.70
2023-01-22T11:58:41.691Z,1013.76
2023-01-22T11:59:41.730Z,1013.71
2023-01-22T12:00:41.582Z,1013.78
2023-01-22T12:01:41.577Z,1013.77
2023-01-22T12:02:42.013Z,1013.77
2023-01-22T12:03:41.562Z,1013.74
2023-01-22T12:04:41.534Z,1013.74
2023-01-22T12:05:41.532Z,1013.70